sensor_id;sensor_type;location;lat;lon;timestamp;pressure;altitude;pressure_sealevel;temperature;humidity
15568;BME280;7885;42.596;23.044;2023-05-20T00:01:01;93243.44;;;13.01;94.78
15568;BME280;7885;42.596;23.044;2023-05-20T00:03:28;93243.47;;;12.94;95.16
15568;BME280;7885;42.596;23.044;2023-05-20T00:05:54;93233.41;;;12.84;96.64
15568;BME280;7885;42.596;23.044;2023-05-20T00:08:21;93237.25;;;12.90;97.56
15568;BME280;7885;42.596;23.044;2023-05-20T00:10:48;93240.44;;;12.85;95.99
15568;BME280;7885;42.596;23.044;2023-05-20T00:13:16;93225.75;;;12.64;94.35
15568;BME280;7885;42.596;23.044;2023-05-20T00:15:43;93238.63;;;12.60;97.83
15568;BME280;7885;42.596;23.044;2023-05-20T00:18:09;93239.06;;;12.48;98.28
15568;BME280;7885;42.596;23.044;2023-05-20T00:20:36;93236.00;;;12.39;98.97
15568;BME280;7885;42.596;23.044;2023-05-20T00:23:03;93224.75;;;12.34;99.63
15568;BME280;7885;42.596;23.044;2023-05-20T00:25:30;93232.88;;;12.44;99.60
15568;BME280;7885;42.596;23.044;2023-05-20T00:27:56;93230.13;;;12.51;99.44
15568;BME280;7885;42.596;23.044;2023-05-20T00:30:25;93226.56;;;12.58;99.14
15568;BME280;7885;42.596;23.044;2023-05-20T00:32:51;93226.59;;;12.54;98.49
15568;BME280;7885;42.596;23.044;2023-05-20T00:35:18;93228.88;;;12.59;97.65
15568;BME280;7885;42.596;23.044;2023-05-20T00:37:45;93229.28;;;12.61;97.63
15568;BME280;7885;42.596;23.044;2023-05-20T00:40:12;93230.44;;;12.60;95.95
15568;BME280;7885;42.596;23.044;2023-05-20T00:42:39;93212.56;;;12.45;97.06
15568;BME280;7885;42.596;23.044;2023-05-20T00:45:06;93224.31;;;12.35;98.20
15568;BME280;7885;42.596;23.044;2023-05-20T00:47:35;93222.06;;;12.23;97.50
15568;BME280;7885;42.596;23.044;2023-05-20T00:50:02;93220.09;;;12.27;98.85
15568;BME280;7885;42.596;23.044;2023-05-20T00:52:30;93222.81;;;12.27;98.39
15568;BME280;7885;42.596;23.044;2023-05-20T00:54:58;93215.38;;;12.31;98.88
15568;BME280;7885;42.596;23.044;2023-05-20T00:57:25;93221.59;;;12.35;97.93
15568;BME280;7885;42.596;23.044;2023-05-20T00:59:52;93223.56;;;12.31;97.83
15568;BME280;7885;42.596;23.044;2023-05-20T01:02:19;93221.22;;;12.33;98.58
15568;BME280;7885;42.596;23.044;2023-05-20T01:04:48;93223.50;;;12.42;99.14
15568;BME280;7885;42.596;23.044;2023-05-20T01:07:16;93219.59;;;12.46;97.79
15568;BME280;7885;42.596;23.044;2023-05-20T01:09:43;93226.63;;;12.47;98.06
15568;BME280;7885;42.596;23.044;2023-05-20T01:12:12;93223.06;;;12.57;98.06
15568;BME280;7885;42.596;23.044;2023-05-20T01:14:47;93226.53;;;12.61;97.48
15568;BME280;7885;42.596;23.044;2023-05-20T01:17:15;93227.28;;;12.65;96.11
15568;BME280;7885;42.596;23.044;2023-05-20T01:19:47;93202.09;;;12.40;96.14
15568;BME280;7885;42.596;23.044;2023-05-20T01:22:14;93217.63;;;12.50;97.14
15568;BME280;7885;42.596;23.044;2023-05-20T01:24:44;93222.69;;;12.52;97.39
15568;BME280;7885;42.596;23.044;2023-05-20T01:27:12;93218.75;;;12.56;96.96
15568;BME280;7885;42.596;23.044;2023-05-20T01:29:40;93216.84;;;12.50;97.18
15568;BME280;7885;42.596;23.044;2023-05-20T01:32:10;93211.72;;;12.55;96.95
15568;BME280;7885;42.596;23.044;2023-05-20T01:34:38;93207.84;;;12.53;96.04
15568;BME280;7885;42.596;23.044;2023-05-20T01:37:07;93205.53;;;12.51;95.43
15568;BME280;7885;42.596;23.044;2023-05-20T01:39:35;93211.78;;;12.45;95.51
15568;BME280;7885;42.596;23.044;2023-05-20T01:42:09;93208.69;;;12.43;96.75
15568;BME280;7885;42.596;23.044;2023-05-20T01:44:36;93204.81;;;12.40;96.47
15568;BME280;7885;42.596;23.044;2023-05-20T01:47:03;93214.16;;;12.43;97.14
15568;BME280;7885;42.596;23.044;2023-05-20T01:49:30;93222.75;;;12.38;97.67
15568;BME280;7885;42.596;23.044;2023-05-20T01:51:56;93205.63;;;12.34;97.29
15568;BME280;7885;42.596;23.044;2023-05-20T01:54:23;93202.94;;;12.27;97.46
15568;BME280;7885;42.596;23.044;2023-05-20T01:56:50;93204.91;;;12.26;96.95
15568;BME280;7885;42.596;23.044;2023-05-20T01:59:18;93206.50;;;12.20;96.97
15568;BME280;7885;42.596;23.044;2023-05-20T02:01:45;93213.13;;;12.12;96.64
15568;BME280;7885;42.596;23.044;2023-05-20T02:04:12;93216.69;;;12.02;96.86
15568;BME280;7885;42.596;23.044;2023-05-20T02:06:38;93202.72;;;11.89;97.04
15568;BME280;7885;42.596;23.044;2023-05-20T02:09:06;93212.03;;;11.95;96.25
15568;BME280;7885;42.596;23.044;2023-05-20T02:11:32;93184.06;;;11.77;96.00
15568;BME280;7885;42.596;23.044;2023-05-20T02:13:59;93209.72;;;11.87;97.05
15568;BME280;7885;42.596;23.044;2023-05-20T02:16:27;93207.44;;;11.64;96.66
15568;BME280;7885;42.596;23.044;2023-05-20T02:18:54;93208.59;;;11.59;99.07
15568;BME280;7885;42.596;23.044;2023-05-20T02:21:22;93201.59;;;11.62;100.00
15568;BME280;7885;42.596;23.044;2023-05-20T02:23:49;93195.75;;;11.63;100.00
15568;BME280;7885;42.596;23.044;2023-05-20T02:26:16;93197.69;;;11.59;100.00
15568;BME280;7885;42.596;23.044;2023-05-20T02:28:42;93202.03;;;11.46;100.00
15568;BME280;7885;42.596;23.044;2023-05-20T02:31:11;93204.75;;;11.43;99.57
15568;BME280;7885;42.596;23.044;2023-05-20T02:33:39;93204.38;;;11.37;98.82
15568;BME280;7885;42.596;23.044;2023-05-20T02:36:06;93198.53;;;11.32;97.81
15568;BME280;7885;42.596;23.044;2023-05-20T02:38:33;93214.50;;;11.33;97.37
15568;BME280;7885;42.596;23.044;2023-05-20T02:41:00;93206.72;;;11.35;97.62
15568;BME280;7885;42.596;23.044;2023-05-20T02:43:28;93198.16;;;11.33;98.00
15568;BME280;7885;42.596;23.044;2023-05-20T02:45:55;93209.06;;;11.33;97.91
15568;BME280;7885;42.596;23.044;2023-05-20T02:48:22;93212.56;;;11.30;97.39
15568;BME280;7885;42.596;23.044;2023-05-20T02:50:50;93207.50;;;11.32;98.75
15568;BME280;7885;42.596;23.044;2023-05-20T02:53:17;93200.91;;;11.26;99.17
15568;BME280;7885;42.596;23.044;2023-05-20T02:55:45;93212.94;;;11.32;99.67
15568;BME280;7885;42.596;23.044;2023-05-20T02:58:13;93215.31;;;11.23;100.00
15568;BME280;7885;42.596;23.044;2023-05-20T03:00:40;93213.38;;;11.17;100.00
15568;BME280;7885;42.596;23.044;2023-05-20T03:03:07;93223.06;;;11.14;100.00
15568;BME280;7885;42.596;23.044;2023-05-20T03:05:35;93219.97;;;11.19;100.00
15568;BME280;7885;42.596;23.044;2023-05-20T03:08:07;93224.63;;;11.29;100.00
15568;BME280;7885;42.596;23.044;2023-05-20T03:10:34;93217.59;;;11.35;100.00
15568;BME280;7885;42.596;23.044;2023-05-20T03:13:01;93230.84;;;11.40;100.00
15568;BME280;7885;42.596;23.044;2023-05-20T03:15:28;93232.00;;;11.39;100.00
15568;BME280;7885;42.596;23.044;2023-05-20T03:17:55;93228.50;;;11.39;100.00
15568;BME280;7885;42.596;23.044;2023-05-20T03:20:22;93237.09;;;11.37;99.83
15568;BME280;7885;42.596;23.044;2023-05-20T03:22:50;93240.19;;;11.39;99.67
15568;BME280;7885;42.596;23.044;2023-05-20T03:25:18;93243.31;;;11.31;100.00
15568;BME280;7885;42.596;23.044;2023-05-20T03:27:45;93230.88;;;11.26;100.00
15568;BME280;7885;42.596;23.044;2023-05-20T03:30:12;93241.34;;;11.31;100.00
15568;BME280;7885;42.596;23.044;2023-05-20T03:32:39;93234.75;;;11.14;100.00
15568;BME280;7885;42.596;23.044;2023-05-20T03:35:07;93231.66;;;11.23;100.00
15568;BME280;7885;42.596;23.044;2023-05-20T03:37:34;93238.63;;;11.24;100.00
15568;BME280;7885;42.596;23.044;2023-05-20T03:40:01;93244.88;;;11.25;100.00
15568;BME280;7885;42.596;23.044;2023-05-20T03:42:31;93242.53;;;11.27;100.00
15568;BME280;7885;42.596;23.044;2023-05-20T03:44:58;93243.31;;;11.27;100.00
15568;BME280;7885;42.596;23.044;2023-05-20T03:47:25;93251.47;;;11.45;100.00
15568;BME280;7885;42.596;23.044;2023-05-20T03:49:52;93257.31;;;11.54;100.00
15568;BME280;7885;42.596;23.044;2023-05-20T03:52:19;93261.56;;;11.58;100.00
15568;BME280;7885;42.596;23.044;2023-05-20T03:54:46;93261.19;;;11.63;100.00
15568;BME280;7885;42.596;23.044;2023-05-20T03:57:12;93266.63;;;11.63;100.00
15568;BME280;7885;42.596;23.044;2023-05-20T03:59:40;93265.06;;;11.70;100.00
15568;BME280;7885;42.596;23.044;2023-05-20T04:02:08;93273.66;;;11.79;100.00
15568;BME280;7885;42.596;23.044;2023-05-20T04:04:35;93271.31;;;11.81;100.00
15568;BME280;7885;42.596;23.044;2023-05-20T04:07:02;93271.31;;;11.74;100.00
15568;BME280;7885;42.596;23.044;2023-05-20T04:09:29;93273.63;;;11.86;100.00
15568;BME280;7885;42.596;23.044;2023-05-20T04:11:55;93272.88;;;11.82;100.00
15568;BME280;7885;42.596;23.044;2023-05-20T04:14:22;93261.16;;;11.85;100.00
15568;BME280;7885;42.596;23.044;2023-05-20T04:16:50;93254.91;;;11.95;100.00
15568;BME280;7885;42.596;23.044;2023-05-20T04:19:17;93258.75;;;12.08;100.00
15568;BME280;7885;42.596;23.044;2023-05-20T04:21:44;93249.38;;;12.20;100.00
15568;BME280;7885;42.596;23.044;2023-05-20T04:24:11;93243.84;;;12.34;100.00
15568;BME280;7885;42.596;23.044;2023-05-20T04:26:38;93258.63;;;12.43;100.00
15568;BME280;7885;42.596;23.044;2023-05-20T04:29:05;93256.22;;;12.52;100.00
15568;BME280;7885;42.596;23.044;2023-05-20T04:31:32;93253.09;;;12.54;100.00
15568;BME280;7885;42.596;23.044;2023-05-20T04:34:00;93259.63;;;12.71;100.00
15568;BME280;7885;42.596;23.044;2023-05-20T04:36:27;93253.81;;;12.69;100.00
15568;BME280;7885;42.596;23.044;2023-05-20T04:38:54;93252.16;;;12.82;100.00
15568;BME280;7885;42.596;23.044;2023-05-20T04:41:20;93261.44;;;12.95;100.00
15568;BME280;7885;42.596;23.044;2023-05-20T04:43:48;93263.34;;;13.01;100.00
15568;BME280;7885;42.596;23.044;2023-05-20T04:46:15;93260.94;;;13.10;99.90
15568;BME280;7885;42.596;23.044;2023-05-20T04:48:42;93263.25;;;13.19;99.54
15568;BME280;7885;42.596;23.044;2023-05-20T04:51:10;93266.72;;;13.27;98.82
15568;BME280;7885;42.596;23.044;2023-05-20T04:53:37;93253.78;;;13.31;98.16
15568;BME280;7885;42.596;23.044;2023-05-20T04:56:05;93259.94;;;13.42;98.68
15568;BME280;7885;42.596;23.044;2023-05-20T04:58:32;93259.41;;;13.57;98.25
15568;BME280;7885;42.596;23.044;2023-05-20T05:00:59;93267.09;;;13.70;98.45
15568;BME280;7885;42.596;23.044;2023-05-20T05:03:27;93253.81;;;13.72;98.51
15568;BME280;7885;42.596;23.044;2023-05-20T05:05:55;93261.88;;;13.86;97.85
15568;BME280;7885;42.596;23.044;2023-05-20T05:08:23;93254.44;;;13.86;97.66
15568;BME280;7885;42.596;23.044;2023-05-20T05:10:50;93256.63;;;14.02;97.30
15568;BME280;7885;42.596;23.044;2023-05-20T05:13:16;93258.88;;;14.10;95.30
15568;BME280;7885;42.596;23.044;2023-05-20T05:15:43;93258.81;;;14.14;93.50
15568;BME280;7885;42.596;23.044;2023-05-20T05:21:31;93266.09;;;14.28;93.15
15568;BME280;7885;42.596;23.044;2023-05-20T05:23:59;93265.66;;;14.36;93.39
15568;BME280;7885;42.596;23.044;2023-05-20T05:26:26;93256.56;;;14.43;93.73
15568;BME280;7885;42.596;23.044;2023-05-20T05:28:53;93251.50;;;14.41;91.82
15568;BME280;7885;42.596;23.044;2023-05-20T05:31:20;93281.81;;;14.57;90.95
15568;BME280;7885;42.596;23.044;2023-05-20T05:33:47;93281.81;;;14.57;91.46
15568;BME280;7885;42.596;23.044;2023-05-20T05:36:14;93281.81;;;14.57;90.90
15568;BME280;7885;42.596;23.044;2023-05-20T05:38:41;93288.41;;;14.63;90.02
15568;BME280;7885;42.596;23.044;2023-05-20T05:41:10;93283.56;;;14.75;90.55
15568;BME280;7885;42.596;23.044;2023-05-20T05:43:36;93283.09;;;14.80;89.14
15568;BME280;7885;42.596;23.044;2023-05-20T05:46:03;93279.81;;;14.92;87.14
15568;BME280;7885;42.596;23.044;2023-05-20T05:48:31;93280.34;;;15.10;88.10
15568;BME280;7885;42.596;23.044;2023-05-20T05:50:57;93273.09;;;15.23;86.55
15568;BME280;7885;42.596;23.044;2023-05-20T05:53:24;93275.34;;;15.28;85.88
15568;BME280;7885;42.596;23.044;2023-05-20T05:55:51;93277.53;;;15.40;84.76
15568;BME280;7885;42.596;23.044;2023-05-20T05:58:19;93271.84;;;15.54;85.65
15568;BME280;7885;42.596;23.044;2023-05-20T06:00:45;93275.53;;;15.68;83.66
15568;BME280;7885;42.596;23.044;2023-05-20T06:03:12;93270.78;;;15.72;84.55
15568;BME280;7885;42.596;23.044;2023-05-20T06:05:39;93270.66;;;15.79;84.17
15568;BME280;7885;42.596;23.044;2023-05-20T06:08:05;93266.13;;;15.92;82.82
15568;BME280;7885;42.596;23.044;2023-05-20T06:10:33;93280.19;;;15.94;82.38
15568;BME280;7885;42.596;23.044;2023-05-20T06:13:00;93273.50;;;15.95;82.03
15568;BME280;7885;42.596;23.044;2023-05-20T06:15:28;93279.28;;;16.00;81.20
15568;BME280;7885;42.596;23.044;2023-05-20T06:17:54;93276.47;;;16.04;82.03
15568;BME280;7885;42.596;23.044;2023-05-20T06:20:21;93274.31;;;16.15;81.73
15568;BME280;7885;42.596;23.044;2023-05-20T06:22:48;93277.13;;;16.31;83.04
15568;BME280;7885;42.596;23.044;2023-05-20T06:25:14;93271.75;;;16.47;82.19
15568;BME280;7885;42.596;23.044;2023-05-20T06:27:41;93261.31;;;16.58;79.03
15568;BME280;7885;42.596;23.044;2023-05-20T06:30:08;93261.69;;;16.60;79.47
15568;BME280;7885;42.596;23.044;2023-05-20T06:32:37;93257.94;;;16.71;79.03
15568;BME280;7885;42.596;23.044;2023-05-20T06:35:04;93263.22;;;16.81;80.23
15568;BME280;7885;42.596;23.044;2023-05-20T06:37:31;93253.53;;;16.93;76.57
15568;BME280;7885;42.596;23.044;2023-05-20T06:39:58;93248.66;;;17.00;76.30
15568;BME280;7885;42.596;23.044;2023-05-20T06:42:24;93247.72;;;17.07;77.25
15568;BME280;7885;42.596;23.044;2023-05-20T06:44:51;93253.06;;;17.14;77.00
15568;BME280;7885;42.596;23.044;2023-05-20T06:47:18;93252.56;;;17.19;78.02
15568;BME280;7885;42.596;23.044;2023-05-20T06:49:46;93256.69;;;17.27;76.19
15568;BME280;7885;42.596;23.044;2023-05-20T06:52:12;93254.81;;;17.40;77.06
15568;BME280;7885;42.596;23.044;2023-05-20T06:54:39;93250.50;;;17.55;75.36
15568;BME280;7885;42.596;23.044;2023-05-20T06:57:06;93239.16;;;17.53;75.58
15568;BME280;7885;42.596;23.044;2023-05-20T06:59:34;93252.09;;;17.56;74.74
15568;BME280;7885;42.596;23.044;2023-05-20T07:02:01;93244.09;;;17.62;73.88
15568;BME280;7885;42.596;23.044;2023-05-20T07:04:27;93251.06;;;17.66;74.24
15568;BME280;7885;42.596;23.044;2023-05-20T07:06:55;93253.97;;;17.76;74.79
15568;BME280;7885;42.596;23.044;2023-05-20T07:09:22;93250.53;;;17.88;75.23
15568;BME280;7885;42.596;23.044;2023-05-20T07:11:49;93244.16;;;17.91;73.49
15568;BME280;7885;42.596;23.044;2023-05-20T07:14:16;93250.16;;;18.02;74.22
15568;BME280;7885;42.596;23.044;2023-05-20T07:16:42;93235.34;;;18.12;74.50
15568;BME280;7885;42.596;23.044;2023-05-20T07:19:09;93244.97;;;18.20;72.44
15568;BME280;7885;42.596;23.044;2023-05-20T07:21:36;93240.03;;;18.28;72.11
15568;BME280;7885;42.596;23.044;2023-05-20T07:24:04;93241.97;;;18.43;72.17
15568;BME280;7885;42.596;23.044;2023-05-20T07:26:31;93241.59;;;18.57;72.31
15568;BME280;7885;42.596;23.044;2023-05-20T07:29:01;93234.81;;;18.75;71.03
15568;BME280;7885;42.596;23.044;2023-05-20T07:31:28;93242.78;;;18.98;69.49
15568;BME280;7885;42.596;23.044;2023-05-20T07:33:54;93235.94;;;19.15;69.45
15568;BME280;7885;42.596;23.044;2023-05-20T07:36:21;93242.47;;;19.34;70.04
15568;BME280;7885;42.596;23.044;2023-05-20T07:38:48;93252.97;;;19.51;66.69
15568;BME280;7885;42.596;23.044;2023-05-20T07:41:16;93245.47;;;19.64;67.16
15568;BME280;7885;42.596;23.044;2023-05-20T07:43:43;93242.47;;;19.72;67.09
15568;BME280;7885;42.596;23.044;2023-05-20T07:46:10;93233.06;;;19.82;66.36
15568;BME280;7885;42.596;23.044;2023-05-20T07:48:36;93229.63;;;19.90;61.75
15568;BME280;7885;42.596;23.044;2023-05-20T07:51:03;93228.34;;;20.04;61.80
15568;BME280;7885;42.596;23.044;2023-05-20T07:53:30;93226.31;;;20.17;63.55
15568;BME280;7885;42.596;23.044;2023-05-20T07:55:58;93227.31;;;20.23;61.73
15568;BME280;7885;42.596;23.044;2023-05-20T07:58:26;93227.63;;;20.25;61.60
15568;BME280;7885;42.596;23.044;2023-05-20T08:00:53;93226.19;;;20.33;59.65
15568;BME280;7885;42.596;23.044;2023-05-20T08:03:19;93214.69;;;20.35;60.11
15568;BME280;7885;42.596;23.044;2023-05-20T08:05:46;93220.16;;;20.47;58.77
15568;BME280;7885;42.596;23.044;2023-05-20T08:08:13;93215.34;;;20.60;59.30
15568;BME280;7885;42.596;23.044;2023-05-20T08:10:41;93208.25;;;20.59;58.01
15568;BME280;7885;42.596;23.044;2023-05-20T08:13:10;93215.13;;;20.77;59.54
15568;BME280;7885;42.596;23.044;2023-05-20T08:15:38;93204.72;;;20.81;57.85
15568;BME280;7885;42.596;23.044;2023-05-20T08:18:05;93205.22;;;20.88;59.20
15568;BME280;7885;42.596;23.044;2023-05-20T08:20:32;93204.03;;;20.98;58.07
15568;BME280;7885;42.596;23.044;2023-05-20T08:22:58;93194.69;;;21.05;58.62
15568;BME280;7885;42.596;23.044;2023-05-20T08:25:25;93190.00;;;20.93;56.54
15568;BME280;7885;42.596;23.044;2023-05-20T08:27:52;93185.38;;;20.90;57.42
15568;BME280;7885;42.596;23.044;2023-05-20T08:30:18;93190.06;;;21.02;58.40
15568;BME280;7885;42.596;23.044;2023-05-20T08:32:46;93186.84;;;21.03;57.41
15568;BME280;7885;42.596;23.044;2023-05-20T08:35:14;93192.25;;;21.07;57.04
15568;BME280;7885;42.596;23.044;2023-05-20T08:37:40;93182.78;;;21.17;57.58
15568;BME280;7885;42.596;23.044;2023-05-20T08:40:08;93186.50;;;21.23;57.04
15568;BME280;7885;42.596;23.044;2023-05-20T08:42:40;93192.91;;;21.11;55.57
15568;BME280;7885;42.596;23.044;2023-05-20T08:45:10;93191.06;;;21.17;57.09
15568;BME280;7885;42.596;23.044;2023-05-20T08:47:38;93193.41;;;21.19;56.33
15568;BME280;7885;42.596;23.044;2023-05-20T08:50:09;93191.13;;;21.26;56.16
15568;BME280;7885;42.596;23.044;2023-05-20T08:59:20;93192.44;;;21.52;54.76
15568;BME280;7885;42.596;23.044;2023-05-20T09:01:47;93185.41;;;21.60;56.06
15568;BME280;7885;42.596;23.044;2023-05-20T09:04:14;93192.66;;;21.76;55.18
15568;BME280;7885;42.596;23.044;2023-05-20T09:06:43;93169.72;;;21.66;54.46
15568;BME280;7885;42.596;23.044;2023-05-20T09:09:11;93177.53;;;21.59;55.20
15568;BME280;7885;42.596;23.044;2023-05-20T09:11:38;93185.13;;;21.67;54.86
15568;BME280;7885;42.596;23.044;2023-05-20T09:14:06;93179.00;;;21.82;55.61
15568;BME280;7885;42.596;23.044;2023-05-20T09:16:33;93169.72;;;21.76;54.84
15568;BME280;7885;42.596;23.044;2023-05-20T09:19:00;93176.81;;;21.77;52.97
15568;BME280;7885;42.596;23.044;2023-05-20T09:21:27;93170.69;;;21.82;54.05
15568;BME280;7885;42.596;23.044;2023-05-20T09:23:55;93181.13;;;21.87;54.01
15568;BME280;7885;42.596;23.044;2023-05-20T09:26:26;93175.28;;;21.85;53.82
15568;BME280;7885;42.596;23.044;2023-05-20T09:28:54;93164.25;;;21.94;54.00
15568;BME280;7885;42.596;23.044;2023-05-20T09:31:25;93162.72;;;22.02;53.08
15568;BME280;7885;42.596;23.044;2023-05-20T09:33:51;93170.09;;;22.05;53.71
15568;BME280;7885;42.596;23.044;2023-05-20T09:36:19;93151.63;;;22.11;55.20
15568;BME280;7885;42.596;23.044;2023-05-20T09:38:50;93160.41;;;22.28;54.01
15568;BME280;7885;42.596;23.044;2023-05-20T09:41:22;93164.69;;;22.38;52.30
15568;BME280;7885;42.596;23.044;2023-05-20T09:43:51;93156.88;;;22.27;52.55
15568;BME280;7885;42.596;23.044;2023-05-20T09:46:19;93160.25;;;22.40;52.48
15568;BME280;7885;42.596;23.044;2023-05-20T09:48:46;93151.56;;;22.65;53.06
15568;BME280;7885;42.596;23.044;2023-05-20T09:51:14;93159.91;;;22.75;53.44
15568;BME280;7885;42.596;23.044;2023-05-20T09:53:41;93153.13;;;22.85;54.75
15568;BME280;7885;42.596;23.044;2023-05-20T09:56:08;93158.06;;;22.81;51.09
15568;BME280;7885;42.596;23.044;2023-05-20T09:58:37;93128.69;;;22.98;52.28
15568;BME280;7885;42.596;23.044;2023-05-20T10:01:05;93150.19;;;23.21;52.76
15568;BME280;7885;42.596;23.044;2023-05-20T10:03:32;93152.81;;;23.25;52.26
15568;BME280;7885;42.596;23.044;2023-05-20T10:06:27;93148.59;;;23.47;53.05
15568;BME280;7885;42.596;23.044;2023-05-20T10:09:10;93138.97;;;23.57;53.46
15568;BME280;7885;42.596;23.044;2023-05-20T10:11:45;93127.19;;;23.62;49.86
15568;BME280;7885;42.596;23.044;2023-05-20T10:14:40;93118.91;;;23.53;51.75
15568;BME280;7885;42.596;23.044;2023-05-20T10:17:23;93128.66;;;23.49;51.94
15568;BME280;7885;42.596;23.044;2023-05-20T10:19:56;93134.53;;;23.09;53.44
15568;BME280;7885;42.596;23.044;2023-05-20T10:22:26;93135.63;;;23.35;53.55
15568;BME280;7885;42.596;23.044;2023-05-20T10:24:57;93111.22;;;23.48;53.73
15568;BME280;7885;42.596;23.044;2023-05-20T10:27:24;93117.44;;;23.91;53.54
15568;BME280;7885;42.596;23.044;2023-05-20T10:29:54;93108.81;;;23.89;51.35
15568;BME280;7885;42.596;23.044;2023-05-20T10:32:25;93117.25;;;24.18;51.17
15568;BME280;7885;42.596;23.044;2023-05-20T10:34:57;93104.38;;;24.21;50.29
15568;BME280;7885;42.596;23.044;2023-05-20T10:37:26;93112.34;;;24.13;48.57
15568;BME280;7885;42.596;23.044;2023-05-20T10:40:04;93100.19;;;24.25;50.03
15568;BME280;7885;42.596;23.044;2023-05-20T10:42:31;93091.97;;;24.45;48.64
15568;BME280;7885;42.596;23.044;2023-05-20T10:44:59;93093.66;;;24.28;48.23
15568;BME280;7885;42.596;23.044;2023-05-20T10:47:26;93108.00;;;24.50;50.99
15568;BME280;7885;42.596;23.044;2023-05-20T10:49:53;93085.63;;;24.59;47.94
15568;BME280;7885;42.596;23.044;2023-05-20T10:52:20;93085.63;;;24.45;46.21
15568;BME280;7885;42.596;23.044;2023-05-20T10:54:54;93082.44;;;24.23;47.10
15568;BME280;7885;42.596;23.044;2023-05-20T10:57:21;93075.66;;;24.68;48.97
15568;BME280;7885;42.596;23.044;2023-05-20T10:59:48;93059.34;;;24.90;48.06
15568;BME280;7885;42.596;23.044;2023-05-20T11:02:19;93082.16;;;25.23;46.17
15568;BME280;7885;42.596;23.044;2023-05-20T11:04:50;93075.81;;;25.08;44.83
15568;BME280;7885;42.596;23.044;2023-05-20T11:07:24;93061.56;;;24.86;44.72
15568;BME280;7885;42.596;23.044;2023-05-20T11:09:51;93078.72;;;24.55;45.45
15568;BME280;7885;42.596;23.044;2023-05-20T11:12:19;93065.09;;;24.04;44.99
15568;BME280;7885;42.596;23.044;2023-05-20T11:14:47;93052.31;;;23.83;45.94
15568;BME280;7885;42.596;23.044;2023-05-20T11:17:14;93070.16;;;23.91;46.55
15568;BME280;7885;42.596;23.044;2023-05-20T11:19:42;93060.56;;;24.16;47.25
15568;BME280;7885;42.596;23.044;2023-05-20T11:22:09;93065.09;;;24.42;48.22
15568;BME280;7885;42.596;23.044;2023-05-20T11:24:36;93036.56;;;24.77;46.30
15568;BME280;7885;42.596;23.044;2023-05-20T11:27:03;93045.69;;;24.48;44.94
15568;BME280;7885;42.596;23.044;2023-05-20T11:29:30;93031.72;;;24.13;46.06
15568;BME280;7885;42.596;23.044;2023-05-20T11:31:58;93045.59;;;23.89;46.17
15568;BME280;7885;42.596;23.044;2023-05-20T11:34:25;93044.34;;;24.14;47.48
15568;BME280;7885;42.596;23.044;2023-05-20T11:36:59;93038.63;;;24.61;46.88
15568;BME280;7885;42.596;23.044;2023-05-20T11:39:28;93047.81;;;24.68;45.14
15568;BME280;7885;42.596;23.044;2023-05-20T11:41:56;93039.94;;;24.66;44.78
15568;BME280;7885;42.596;23.044;2023-05-20T11:44:23;93043.78;;;24.69;46.18
15568;BME280;7885;42.596;23.044;2023-05-20T11:46:50;93043.31;;;24.85;45.12
15568;BME280;7885;42.596;23.044;2023-05-20T11:49:17;93039.34;;;24.77;45.66
15568;BME280;7885;42.596;23.044;2023-05-20T11:51:44;93008.84;;;24.68;44.32
15568;BME280;7885;42.596;23.044;2023-05-20T11:54:12;93033.25;;;24.58;44.82
15568;BME280;7885;42.596;23.044;2023-05-20T11:56:39;93020.94;;;24.21;45.40
15568;BME280;7885;42.596;23.044;2023-05-20T11:59:07;93034.78;;;24.30;47.19
15568;BME280;7885;42.596;23.044;2023-05-20T12:01:36;93034.97;;;24.55;45.21
15568;BME280;7885;42.596;23.044;2023-05-20T12:04:05;93018.66;;;24.48;46.34
15568;BME280;7885;42.596;23.044;2023-05-20T12:06:32;93012.31;;;24.48;47.76
15568;BME280;7885;42.596;23.044;2023-05-20T12:09:00;93022.13;;;24.29;46.42
15568;BME280;7885;42.596;23.044;2023-05-20T12:11:32;93022.06;;;23.99;46.26
15568;BME280;7885;42.596;23.044;2023-05-20T12:13:59;93025.91;;;24.02;46.82
15568;BME280;7885;42.596;23.044;2023-05-20T12:16:26;93019.91;;;23.80;46.09
15568;BME280;7885;42.596;23.044;2023-05-20T12:18:53;93017.25;;;23.85;47.41
15568;BME280;7885;42.596;23.044;2023-05-20T12:21:20;93028.25;;;23.80;48.53
15568;BME280;7885;42.596;23.044;2023-05-20T12:23:46;93021.31;;;23.60;47.93
15568;BME280;7885;42.596;23.044;2023-05-20T12:26:13;93027.63;;;23.37;50.03
15568;BME280;7885;42.596;23.044;2023-05-20T12:28:41;93031.38;;;23.01;49.28
15568;BME280;7885;42.596;23.044;2023-05-20T12:31:08;93026.72;;;23.07;49.82
15568;BME280;7885;42.596;23.044;2023-05-20T12:33:35;93020.88;;;23.29;49.86
15568;BME280;7885;42.596;23.044;2023-05-20T12:36:02;93005.75;;;23.30;49.32
15568;BME280;7885;42.596;23.044;2023-05-20T12:38:29;93017.13;;;23.41;49.89
15568;BME280;7885;42.596;23.044;2023-05-20T12:40:56;93010.06;;;23.31;50.83
15568;BME280;7885;42.596;23.044;2023-05-20T12:43:23;93012.47;;;23.38;50.50
15568;BME280;7885;42.596;23.044;2023-05-20T12:45:51;93008.13;;;23.46;50.08
15568;BME280;7885;42.596;23.044;2023-05-20T12:48:18;93008.38;;;23.57;50.02
15568;BME280;7885;42.596;23.044;2023-05-20T12:50:44;93013.09;;;23.42;50.15
15568;BME280;7885;42.596;23.044;2023-05-20T12:53:11;93005.00;;;23.30;50.46
15568;BME280;7885;42.596;23.044;2023-05-20T12:55:38;93013.59;;;23.08;51.00
15568;BME280;7885;42.596;23.044;2023-05-20T12:58:05;93007.75;;;22.22;56.12
15568;BME280;7885;42.596;23.044;2023-05-20T13:00:33;93008.44;;;21.53;63.90
15568;BME280;7885;42.596;23.044;2023-05-20T13:03:01;93030.44;;;20.90;71.52
15568;BME280;7885;42.596;23.044;2023-05-20T13:05:28;93035.59;;;20.30;72.99
15568;BME280;7885;42.596;23.044;2023-05-20T13:07:55;93037.03;;;19.91;73.32
15568;BME280;7885;42.596;23.044;2023-05-20T13:10:21;93037.09;;;19.56;74.67